Time;durP1;ratioP1;P1;durP2;ratioP2;P2;SDS_P1;SDS_P2;PMS_P1;PMS_P2;Temp;Humidity;BMP_temperature;BMP_pressure;BME280_temperature;BME280_humidity;BME280_pressure;Samples;Min_cycle;Max_cycle;Signal;HPM_P1;HPM_P2
2022/01/16 00:04:10;;;;;;;40.60;20.77;;;;;;;0.83;100.00;98900.78;5107124;28;20727;-73
2022/01/16 00:06:38;;;;;;;40.33;21.03;;;;;;;0.81;100.00;98918.13;5108718;28;20219;-73
2022/01/16 00:09:06;;;;;;;44.87;22.37;;;;;;;0.75;100.00;98923.44;5110458;28;20218;-73
2022/01/16 00:11:35;;;;;;;45.83;21.80;;;;;;;0.76;100.00;98914.78;5104492;28;20232;-73
2022/01/16 00:14:02;;;;;;;47.03;22.83;;;;;;;0.76;100.00;98940.81;5096839;28;20233;-73
2022/01/16 00:16:29;;;;;;;46.47;23.30;;;;;;;0.74;100.00;98932.16;5097446;28;20215;-73
2022/01/16 00:18:57;;;;;;;48.87;22.77;;;;;;;0.78;100.00;98933.81;5095598;28;20222;-73
2022/01/16 00:21:25;;;;;;;45.13;22.50;;;;;;;0.80;100.00;98947.66;5094194;28;20224;-73
2022/01/16 00:23:52;;;;;;;49.53;23.70;;;;;;;0.73;100.00;98940.84;5094347;28;20225;-73
2022/01/16 00:26:21;;;;;;;47.70;23.90;;;;;;;0.78;100.00;98923.41;5094529;28;20221;-73
2022/01/16 00:28:49;;;;;;;46.73;23.33;;;;;;;0.75;100.00;98920.84;5094315;28;20219;-73
2022/01/16 00:31:17;;;;;;;46.70;23.30;;;;;;;0.75;100.00;98933.84;5093890;28;20246;-73
2022/01/16 00:33:44;;;;;;;50.43;23.87;;;;;;;0.77;100.00;98916.50;5094252;28;20233;-73
2022/01/16 00:36:14;;;;;;;47.63;23.23;;;;;;;0.76;100.00;98903.50;5094492;28;20751;-73
2022/01/16 00:38:43;;;;;;;48.40;23.30;;;;;;;0.78;100.00;98913.00;5094166;28;20263;-73
2022/01/16 00:41:10;;;;;;;54.10;24.63;;;;;;;0.74;100.00;98926.94;5092269;28;20219;-73
2022/01/16 00:43:39;;;;;;;46.93;22.90;;;;;;;0.75;100.00;98939.06;5094220;28;20214;-73
2022/01/16 00:46:05;;;;;;;46.53;22.23;;;;;;;0.77;100.00;98937.31;5094213;28;20219;-73
2022/01/16 00:48:32;;;;;;;45.87;23.17;;;;;;;0.80;100.00;98926.84;5093547;28;20218;-73
2022/01/16 00:50:59;;;;;;;49.70;23.47;;;;;;;0.81;100.00;98927.72;5093914;28;20246;-73
2022/01/16 00:53:25;;;;;;;43.87;22.70;;;;;;;0.79;100.00;98922.53;5093577;28;20217;-73
2022/01/16 00:55:52;;;;;;;41.70;21.50;;;;;;;0.74;100.00;98942.56;5093812;28;20733;-73
2022/01/16 00:58:19;;;;;;;46.67;21.93;;;;;;;0.75;100.00;98930.41;5093823;28;20211;-73
2022/01/16 01:00:47;;;;;;;47.83;22.03;;;;;;;0.78;100.00;98948.56;5093708;28;20215;-74
2022/01/16 01:03:14;;;;;;;46.77;21.83;;;;;;;0.78;100.00;98938.16;5093540;28;20264;-74
2022/01/16 01:05:41;;;;;;;48.77;23.67;;;;;;;0.84;100.00;98953.66;5094019;28;20217;-73
2022/01/16 01:08:08;;;;;;;48.70;24.47;;;;;;;0.81;100.00;98958.94;5091763;28;20221;-73
2022/01/16 01:10:38;;;;;;;47.67;23.00;;;;;;;0.81;100.00;98949.34;5098475;28;20210;-73
2022/01/16 01:13:10;;;;;;;48.93;22.67;;;;;;;0.79;100.00;98947.66;5110219;28;20297;-73
2022/01/16 01:15:43;;;;;;;49.07;22.67;;;;;;;0.80;100.00;98960.66;5106643;28;20238;-73
2022/01/16 01:18:11;;;;;;;45.47;22.83;;;;;;;0.81;100.00;98949.34;5110062;28;20634;-73
2022/01/16 01:20:40;;;;;;;45.57;22.57;;;;;;;0.81;100.00;98923.34;5109882;28;20747;-73
2022/01/16 01:23:07;;;;;;;45.13;22.87;;;;;;;0.81;100.00;98863.50;5109207;28;20266;-73
2022/01/16 01:25:34;;;;;;;47.97;23.10;;;;;;;0.86;100.00;98861.69;5107471;28;20210;-73
2022/01/16 01:28:01;;;;;;;47.33;24.00;;;;;;;0.89;100.00;98855.56;5110012;28;20232;-73
2022/01/16 01:30:27;;;;;;;48.33;24.00;;;;;;;0.88;100.00;98867.72;5109833;28;20618;-73
2022/01/16 01:32:55;;;;;;;46.40;23.13;;;;;;;0.87;100.00;98860.78;5109809;28;20230;-73
2022/01/16 01:35:23;;;;;;;49.63;24.07;;;;;;;0.89;100.00;98879.84;5107113;28;20238;-73
2022/01/16 01:37:50;;;;;;;49.43;24.70;;;;;;;0.92;100.00;98902.34;5109674;28;20263;-74
2022/01/16 01:40:21;;;;;;;53.63;24.03;;;;;;;0.90;100.00;98923.19;5109782;28;20235;-74
2022/01/16 01:43:01;;;;;;;54.10;24.43;;;;;;;0.90;100.00;98940.53;5109131;28;20213;-74
2022/01/16 01:51:11;;;;;;;51.33;23.23;;;;;;;0.82;100.00;98937.22;5107200;28;20745;-73
2022/01/16 01:53:40;;;;;;;51.20;25.70;;;;;;;0.85;100.00;98952.75;5109659;28;20259;-74
2022/01/16 01:56:09;;;;;;;48.33;23.93;;;;;;;0.80;100.00;98932.03;5109383;28;20695;-73
2022/01/16 01:58:36;;;;;;;54.17;25.43;;;;;;;0.79;100.00;98932.94;5106887;28;20221;-73
2022/01/16 02:01:03;;;;;;;47.50;23.50;;;;;;;0.81;100.00;98948.53;5094641;28;20206;-74
2022/01/16 02:03:42;;;;;;;47.83;23.00;;;;;;;0.82;100.00;98951.09;5098416;28;20225;-74
2022/01/16 02:06:09;;;;;;;53.70;24.70;;;;;;;0.85;100.00;98961.44;5098535;28;20632;-74
2022/01/16 02:08:37;;;;;;;48.20;25.00;;;;;;;0.87;100.00;98975.28;5100084;28;20225;-73
2022/01/16 02:11:03;;;;;;;48.87;24.37;;;;;;;0.84;100.00;98980.53;5099536;28;20203;-74
2022/01/16 02:13:33;;;;;;;49.83;26.03;;;;;;;0.86;100.00;98989.19;5099438;28;20215;-74
2022/01/16 02:35:29;;;;;;;44.50;22.60;;;;;;;0.80;100.00;98955.47;5098179;28;20741;-73
2022/01/16 02:37:55;;;;;;;47.67;23.27;;;;;;;0.78;100.00;98959.84;5099531;28;20214;-74
2022/01/16 02:40:26;;;;;;;40.50;22.67;;;;;;;0.74;100.00;98955.56;5100873;28;20213;-73
2022/01/16 02:42:52;;;;;;;43.23;22.43;;;;;;;0.65;100.00;98953.13;5098665;28;20623;-73
2022/01/16 02:45:31;;;;;;;40.43;22.53;;;;;;;0.70;100.00;98943.50;5098860;28;20223;-73
2022/01/16 02:48:00;;;;;;;38.00;21.30;;;;;;;0.62;100.00;98937.56;5100980;28;20218;-73
2022/01/16 02:50:27;;;;;;;41.77;23.03;;;;;;;0.64;100.00;98945.34;5109311;28;20229;-73
2022/01/16 02:52:53;;;;;;;41.13;22.33;;;;;;;0.62;100.00;98944.53;5094457;28;20223;-73
2022/01/16 02:55:21;;;;;;;40.67;22.03;;;;;;;0.62;100.00;98937.56;5095988;28;20249;-73
2022/01/16 02:57:50;;;;;;;38.23;21.07;;;;;;;0.65;100.00;98934.94;5096465;28;20686;-73
2022/01/16 03:00:18;;;;;;;37.07;20.87;;;;;;;0.64;100.00;98922.81;5096069;28;20222;-73
2022/01/16 03:02:44;;;;;;;38.10;21.93;;;;;;;0.64;100.00;98922.81;5096089;28;20550;-73
2022/01/16 03:05:13;;;;;;;38.77;21.93;;;;;;;0.61;100.00;98922.00;5096118;28;20218;-73
2022/01/16 03:07:40;;;;;;;45.67;22.17;;;;;;;0.60;100.00;98918.53;5096319;28;20215;-73
2022/01/16 03:10:31;;;;;;;41.53;20.80;;;;;;;0.58;100.00;98917.72;5096418;28;20670;-73
2022/01/16 03:12:59;;;;;;;40.47;21.87;;;;;;;0.58;100.00;98915.13;5111772;28;20698;-73
2022/01/16 03:15:26;;;;;;;38.40;21.07;;;;;;;0.56;100.00;98916.88;5109810;28;20604;-74
2022/01/16 03:23:20;;;;;;;38.63;21.40;;;;;;;0.43;100.00;98898.91;5109382;28;20224;-73
2022/01/16 03:25:47;;;;;;;40.17;21.03;;;;;;;0.43;100.00;98904.97;5111274;28;20709;-73
2022/01/16 03:28:15;;;;;;;43.20;22.40;;;;;;;0.44;100.00;98901.47;5112117;28;21336;-74
2022/01/16 03:30:42;;;;;;;44.63;22.57;;;;;;;0.47;100.00;98901.44;5112160;28;20280;-73
2022/01/16 03:33:09;;;;;;;40.07;21.33;;;;;;;0.50;100.00;98901.38;5109434;28;20209;-73
2022/01/16 03:35:35;;;;;;;41.57;22.00;;;;;;;0.57;100.00;98902.13;5111298;28;20237;-73
2022/01/16 03:38:02;;;;;;;39.83;21.33;;;;;;;0.60;100.00;98902.94;5111692;28;20686;-74
2022/01/16 03:40:29;;;;;;;39.87;21.37;;;;;;;0.62;100.00;98906.34;5111954;28;20232;-73
2022/01/16 03:42:59;;;;;;;39.47;21.00;;;;;;;0.64;100.00;98915.00;5109870;28;20217;-74
2022/01/16 03:45:27;;;;;;;37.23;20.73;;;;;;;0.60;100.00;98918.53;5109406;28;20212;-74
2022/01/16 03:47:55;;;;;;;40.10;22.13;;;;;;;0.62;100.00;98914.16;5111753;28;20221;-74
2022/01/16 03:50:22;;;;;;;42.03;22.53;;;;;;;0.59;100.00;98911.63;5111795;28;20240;-73
2022/01/16 03:52:48;;;;;;;41.77;21.73;;;;;;;0.58;100.00;98909.91;5109192;28;20210;-74
2022/01/16 03:55:15;;;;;;;40.27;20.63;;;;;;;0.58;100.00;98920.31;5110278;28;20701;-74
2022/01/16 03:57:41;;;;;;;40.80;20.70;;;;;;;0.59;100.00;98919.44;5111213;28;20218;-73
2022/01/16 04:00:09;;;;;;;41.17;21.37;;;;;;;0.60;100.00;98928.94;5111567;28;20588;-73
2022/01/16 04:02:37;;;;;;;43.90;22.80;;;;;;;0.58;100.00;98920.31;5109414;28;20584;-74
2022/01/16 04:05:04;;;;;;;39.90;21.20;;;;;;;0.60;100.00;98928.94;5107865;28;20219;-74
2022/01/16 04:07:35;;;;;;;41.67;21.33;;;;;;;0.59;100.00;98929.84;5094770;28;20214;-74
2022/01/16 04:10:02;;;;;;;46.77;22.93;;;;;;;0.61;100.00;98920.25;5092711;28;20215;-74
2022/01/16 04:12:28;;;;;;;42.93;22.53;;;;;;;0.58;100.00;98925.53;5108605;28;20227;-73
2022/01/16 04:17:42;;;;;;;41.83;21.70;;;;;;;0.62;100.00;98927.16;5111056;28;20212;-73
2022/01/16 04:20:10;;;;;;;40.70;20.40;;;;;;;0.60;100.00;98918.53;5110015;28;20301;-73
2022/01/16 04:22:38;;;;;;;38.67;21.03;;;;;;;0.64;100.00;98919.34;5108375;28;20218;-74
2022/01/16 04:25:05;;;;;;;37.17;20.90;;;;;;;0.66;100.00;98918.44;5110831;28;20214;-74
2022/01/16 04:27:32;;;;;;;45.23;21.40;;;;;;;0.69;100.00;98912.31;5110720;28;20214;-73
2022/01/16 04:29:58;;;;;;;44.17;23.13;;;;;;;0.66;100.00;98912.34;5109985;28;20213;-73
2022/01/16 04:32:25;;;;;;;39.53;21.40;;;;;;;0.65;100.00;98911.50;5108335;28;20210;-73
2022/01/16 04:34:53;;;;;;;36.90;19.33;;;;;;;0.64;100.00;98907.22;5110782;28;20210;-73
2022/01/16 04:37:19;;;;;;;41.90;22.03;;;;;;;0.60;100.00;98900.31;5108933;28;20237;-74
2022/01/16 04:39:50;;;;;;;43.53;22.97;;;;;;;0.60;100.00;98910.72;5110353;28;20214;-74
2022/01/16 04:45:01;;;;;;;45.40;22.63;;;;;;;0.69;100.00;98907.13;5110486;28;20621;-74
2022/01/16 04:47:27;;;;;;;46.97;22.47;;;;;;;0.70;100.00;98903.63;5110419;28;20214;-74
2022/01/16 04:49:55;;;;;;;42.67;21.87;;;;;;;0.69;100.00;98899.31;5107343;28;20229;-74
2022/01/16 04:52:22;;;;;;;41.53;21.47;;;;;;;0.72;100.00;98896.63;5110420;28;20217;-73
2022/01/16 04:54:48;;;;;;;40.13;21.57;;;;;;;0.73;100.00;98906.16;5110573;28;20221;-74
2022/01/16 04:57:16;;;;;;;42.73;21.90;;;;;;;0.72;100.00;98913.13;5110372;28;20240;-73
2022/01/16 04:59:43;;;;;;;41.87;21.30;;;;;;;0.74;100.00;98916.53;5107444;28;20213;-74
2022/01/16 05:02:10;;;;;;;41.13;21.90;;;;;;;0.73;100.00;98901.81;5108017;28;20678;-73
2022/01/16 05:04:37;;;;;;;40.90;22.27;;;;;;;0.74;100.00;98905.28;5110010;28;20218;-74
2022/01/16 05:07:06;;;;;;;42.53;22.23;;;;;;;0.72;100.00;98910.50;5110325;28;20246;-73
2022/01/16 05:09:32;;;;;;;37.17;20.07;;;;;;;0.74;100.00;98906.13;5107369;28;20229;-73
2022/01/16 05:12:02;;;;;;;39.37;20.83;;;;;;;0.76;100.00;98924.31;5099503;28;20216;-74
2022/01/16 05:17:12;;;;;;;39.60;20.83;;;;;;;0.76;100.00;98914.78;5096515;28;20245;-73
2022/01/16 05:19:39;;;;;;;35.97;20.47;;;;;;;0.75;100.00;98913.03;5104650;28;20214;-74
2022/01/16 05:22:06;;;;;;;36.53;19.80;;;;;;;0.76;100.00;98904.38;5093586;28;20211;-74
2022/01/16 05:24:35;;;;;;;36.30;19.80;;;;;;;0.76;100.00;98898.31;5093569;28;20218;-73
2022/01/16 05:27:01;;;;;;;39.33;20.57;;;;;;;0.78;100.00;98892.19;5093655;28;20616;-74
2022/01/16 05:29:27;;;;;;;39.93;20.80;;;;;;;0.79;100.00;98899.09;5091811;28;20214;-73
2022/01/16 05:31:54;;;;;;;38.87;20.30;;;;;;;0.78;100.00;98892.19;5093635;28;20238;-73
2022/01/16 05:34:23;;;;;;;38.13;20.83;;;;;;;0.78;100.00;98900.00;5094210;28;20601;-74
2022/01/16 05:36:50;;;;;;;37.60;20.47;;;;;;;0.77;100.00;98900.88;5097888;28;20234;-73
2022/01/16 05:39:18;;;;;;;34.33;19.47;;;;;;;0.77;100.00;98902.63;5097609;28;20214;-74
2022/01/16 05:41:44;;;;;;;32.23;18.60;;;;;;;0.76;100.00;98906.97;5097324;28;20221;-74
2022/01/16 05:44:11;;;;;;;34.17;18.87;;;;;;;0.74;100.00;98911.34;5097562;28;20214;-74
2022/01/16 05:46:37;;;;;;;34.93;19.70;;;;;;;0.71;100.00;98916.63;5097327;28;20693;-74
2022/01/16 05:49:04;;;;;;;35.50;20.73;;;;;;;0.72;100.00;98918.31;5100108;28;20224;-73
2022/01/16 05:51:30;;;;;;;35.27;18.57;;;;;;;0.70;100.00;98924.44;5097479;28;20214;-74
2022/01/16 05:53:57;;;;;;;33.03;18.93;;;;;;;0.69;100.00;98923.56;5095629;28;20223;-74
2022/01/16 05:56:25;;;;;;;35.33;19.13;;;;;;;0.73;100.00;98924.38;5097033;28;20776;-73
2022/01/16 05:58:52;;;;;;;32.10;18.53;;;;;;;0.68;100.00;98926.22;5102495;28;20255;-73
2022/01/16 06:01:18;;;;;;;34.93;18.90;;;;;;;0.67;100.00;98924.47;5099828;28;20229;-73
2022/01/16 06:03:45;;;;;;;32.40;19.40;;;;;;;0.65;100.00;98929.72;5099419;28;20678;-73
2022/01/16 06:06:11;;;;;;;33.13;18.67;;;;;;;0.63;100.00;98928.03;5099344;28;20224;-74
2022/01/16 06:08:38;;;;;;;35.10;18.30;;;;;;;0.66;100.00;98931.44;5102134;28;21049;-73
2022/01/16 06:11:05;;;;;;;31.97;17.67;;;;;;;0.64;100.00;98937.53;5101671;28;20226;-73
2022/01/16 06:13:32;;;;;;;31.43;18.67;;;;;;;0.64;100.00;98941.03;5113301;28;20210;-74
2022/01/16 06:15:59;;;;;;;33.53;18.70;;;;;;;0.66;100.00;98943.56;5113342;28;20267;-74
2022/01/16 06:18:25;;;;;;;31.17;18.37;;;;;;;0.61;100.00;98950.63;5110269;28;20218;-74
2022/01/16 06:20:52;;;;;;;34.50;17.83;;;;;;;0.60;100.00;98954.94;5111666;28;20224;-73
2022/01/16 06:23:19;;;;;;;29.73;18.80;;;;;;;0.56;100.00;98963.69;5113142;28;20217;-74
2022/01/16 06:25:45;;;;;;;32.03;18.40;;;;;;;0.53;100.00;98955.94;5113338;28;20206;-74
2022/01/16 06:28:12;;;;;;;33.13;19.83;;;;;;;0.52;100.00;98962.03;5110657;28;20221;-74
2022/01/16 06:30:40;;;;;;;30.77;19.03;;;;;;;0.51;100.00;98964.66;5112622;28;20249;-73
2022/01/16 06:33:09;;;;;;;29.63;18.93;;;;;;;0.50;100.00;98957.75;5112877;28;20697;-74
2022/01/16 06:35:36;;;;;;;28.17;18.07;;;;;;;0.47;100.00;98943.03;5101476;28;20218;-74
2022/01/16 06:38:02;;;;;;;32.27;20.00;;;;;;;0.46;100.00;98948.25;5096832;28;20218;-73
2022/01/16 06:40:29;;;;;;;30.27;18.50;;;;;;;0.46;100.00;98956.94;5096350;28;20229;-74
2022/01/16 06:42:55;;;;;;;32.07;18.50;;;;;;;0.41;100.00;98963.94;5096162;28;20221;-73
2022/01/16 06:45:22;;;;;;;33.00;18.57;;;;;;;0.41;100.00;98973.47;5095889;28;20213;-73
2022/01/16 06:47:51;;;;;;;27.53;17.73;;;;;;;0.45;100.00;98976.00;5094855;28;20213;-74
2022/01/16 06:50:18;;;;;;;28.33;17.67;;;;;;;0.46;100.00;98966.47;5095978;28;20705;-73
2022/01/16 06:52:44;;;;;;;28.60;17.27;;;;;;;0.50;100.00;98968.13;5096362;28;20217;-74
2022/01/16 06:55:11;;;;;;;29.37;18.43;;;;;;;0.48;100.00;98970.75;5095861;28;20221;-74
2022/01/16 06:57:38;;;;;;;29.83;18.10;;;;;;;0.48;100.00;98973.34;5096167;28;20265;-73
2022/01/16 07:00:07;;;;;;;31.97;18.37;;;;;;;0.48;100.00;98985.47;5096076;28;20221;-74
2022/01/16 07:02:33;;;;;;;29.40;18.90;;;;;;;0.50;100.00;98989.78;5096124;28;20219;-74
2022/01/16 07:05:02;;;;;;;29.97;18.40;;;;;;;0.44;100.00;99000.28;5096020;28;20224;-73
2022/01/16 07:07:28;;;;;;;27.43;16.47;;;;;;;0.45;100.00;99001.16;5096422;28;20304;-74
2022/01/16 07:09:55;;;;;;;29.10;17.27;;;;;;;0.45;100.00;99011.56;5095573;28;20218;-73
2022/01/16 07:12:21;;;;;;;27.30;16.80;;;;;;;0.46;100.00;99011.53;5109936;28;20235;-74
2022/01/16 07:14:48;;;;;;;25.40;16.40;;;;;;;0.41;100.00;99015.94;5112440;28;20213;-74
2022/01/16 07:17:15;;;;;;;25.63;16.87;;;;;;;0.38;100.00;99021.19;5110320;28;20237;-74
2022/01/16 07:19:41;;;;;;;26.43;17.03;;;;;;;0.41;100.00;99021.16;5111334;28;20213;-74
2022/01/16 07:22:09;;;;;;;26.37;17.10;;;;;;;0.38;100.00;99020.34;5112210;28;20209;-74
2022/01/16 07:24:36;;;;;;;26.07;15.47;;;;;;;0.35;100.00;99026.44;5112402;28;20210;-73
2022/01/16 07:27:02;;;;;;;26.23;16.43;;;;;;;0.31;100.00;99036.91;5110838;28;20220;-74
2022/01/16 07:29:29;;;;;;;27.23;17.27;;;;;;;0.30;100.00;99042.97;5110247;28;20237;-74
2022/01/16 07:31:56;;;;;;;27.60;17.07;;;;;;;0.28;100.00;99037.81;5111915;28;20237;-74
2022/01/16 07:34:24;;;;;;;29.93;17.87;;;;;;;0.22;100.00;99043.09;5111775;28;20304;-74
2022/01/16 07:36:50;;;;;;;29.97;18.90;;;;;;;0.26;100.00;99042.16;5111013;28;20265;-74
2022/01/16 07:39:18;;;;;;;27.63;17.67;;;;;;;0.28;100.00;99034.34;5108140;28;20217;-73
2022/01/16 07:41:44;;;;;;;28.03;16.23;;;;;;;0.33;100.00;99043.78;5111782;28;20595;-74
2022/01/16 07:44:11;;;;;;;25.27;16.10;;;;;;;0.33;100.00;99051.56;5111731;28;20209;-73
2022/01/16 07:46:37;;;;;;;27.50;16.53;;;;;;;0.36;100.00;99054.16;5111224;28;20217;-74
2022/01/16 07:49:04;;;;;;;26.20;15.60;;;;;;;0.39;100.00;99048.88;5108041;28;20207;-74
2022/01/16 07:51:32;;;;;;;24.33;15.90;;;;;;;0.41;100.00;99056.69;5095087;28;20224;-74
2022/01/16 07:53:58;;;;;;;28.23;16.40;;;;;;;0.41;100.00;99067.06;5094811;28;20223;-73
2022/01/16 07:56:26;;;;;;;28.27;15.50;;;;;;;0.42;100.00;99063.59;5095122;28;20248;-74
2022/01/16 07:58:53;;;;;;;24.30;15.50;;;;;;;0.41;100.00;99061.88;5107469;28;20219;-74
2022/01/16 08:01:20;;;;;;;25.10;15.90;;;;;;;0.43;100.00;99079.19;5111620;28;20690;-74
2022/01/16 08:03:46;;;;;;;26.17;17.03;;;;;;;0.43;100.00;99093.94;5109381;28;20211;-74
2022/01/16 08:06:16;;;;;;;23.47;15.00;;;;;;;0.43;100.00;99091.34;5111232;28;20215;-74
2022/01/16 08:08:43;;;;;;;27.57;15.80;;;;;;;0.42;100.00;99100.00;5108568;28;20215;-74
2022/01/16 08:11:09;;;;;;;25.73;16.27;;;;;;;0.43;100.00;99096.53;5108298;28;20222;-74
2022/01/16 08:13:38;;;;;;;26.20;15.50;;;;;;;0.47;100.00;99101.66;5097283;28;20209;-74
2022/01/16 08:16:05;;;;;;;24.93;15.77;;;;;;;0.53;100.00;99101.59;5096856;28;20253;-74
2022/01/16 08:18:31;;;;;;;24.47;15.10;;;;;;;0.54;100.00;99090.28;5099709;28;20217;-74
2022/01/16 08:20:58;;;;;;;24.47;15.53;;;;;;;0.56;100.00;99078.13;5096746;28;20743;-74
2022/01/16 08:23:24;;;;;;;23.20;15.10;;;;;;;0.58;100.00;99094.59;5097010;28;20221;-73
2022/01/16 08:25:51;;;;;;;25.57;15.13;;;;;;;0.56;100.00;99098.94;5096929;28;20211;-73
2022/01/16 08:28:17;;;;;;;26.27;16.43;;;;;;;0.58;100.00;99097.19;5099553;28;20213;-74
2022/01/16 08:30:45;;;;;;;23.80;16.13;;;;;;;0.57;100.00;99095.44;5095149;28;20321;-73
2022/01/16 08:33:12;;;;;;;25.20;15.97;;;;;;;0.66;100.00;99097.03;5096970;28;20218;-74
2022/01/16 08:35:38;;;;;;;24.90;15.50;;;;;;;0.75;100.00;99102.97;5096567;28;20210;-73
2022/01/16 08:38:05;;;;;;;26.73;16.87;;;;;;;0.78;100.00;99097.72;5099489;28;20248;-74
2022/01/16 08:40:31;;;;;;;26.10;15.80;;;;;;;0.74;100.00;99103.84;5093944;28;20585;-73
2022/01/16 08:42:58;;;;;;;27.07;16.20;;;;;;;0.69;100.00;99099.63;5093991;28;20681;-74
2022/01/16 08:45:24;;;;;;;26.00;17.00;;;;;;;0.77;100.00;99098.63;5093916;28;20727;-74
2022/01/16 08:47:52;;;;;;;24.77;16.37;;;;;;;0.80;100.00;99103.75;5093022;28;20210;-73
2022/01/16 08:50:19;;;;;;;29.67;17.40;;;;;;;0.79;100.00;99109.84;5091286;28;20221;-72
2022/01/16 08:52:46;;;;;;;24.63;15.57;;;;;;;0.82;100.00;99109.81;5093328;28;20214;-74
2022/01/16 08:55:13;;;;;;;25.70;16.70;;;;;;;0.86;100.00;99114.06;5094429;28;20214;-73
2022/01/16 08:57:39;;;;;;;28.10;17.07;;;;;;;0.83;100.00;99119.34;5092600;28;20237;-74
2022/01/16 09:00:09;;;;;;;25.47;16.47;;;;;;;0.83;100.00;99124.56;5093749;28;20685;-74
2022/01/16 09:02:35;;;;;;;27.80;17.30;;;;;;;0.80;100.00;99129.78;5093533;28;20700;-73
2022/01/16 09:05:04;;;;;;;27.20;17.13;;;;;;;0.81;100.00;99121.09;5093733;28;20229;-74
2022/01/16 09:07:30;;;;;;;26.83;16.90;;;;;;;0.86;100.00;99134.06;5103921;28;20217;-74
2022/01/16 09:09:59;;;;;;;27.30;16.57;;;;;;;0.87;100.00;99141.81;5105428;28;20224;-74
2022/01/16 09:12:26;;;;;;;24.67;16.37;;;;;;;0.89;100.00;99142.69;5108620;28;20241;-74
2022/01/16 09:14:53;;;;;;;24.97;14.73;;;;;;;0.85;100.00;99134.91;5102193;28;20218;-74
2022/01/16 09:17:19;;;;;;;25.57;17.20;;;;;;;0.86;100.00;99145.31;5104737;28;20260;-74
2022/01/16 09:19:46;;;;;;;25.27;16.43;;;;;;;0.85;100.00;99143.59;5105697;28;20213;-74
2022/01/16 09:22:14;;;;;;;27.00;17.17;;;;;;;0.80;100.00;99144.56;5103485;28;20263;-74
2022/01/16 09:24:40;;;;;;;23.97;16.80;;;;;;;0.85;100.00;99148.78;5102044;28;20214;-74
2022/01/16 09:27:07;;;;;;;26.53;16.63;;;;;;;0.89;100.00;99142.69;5102995;28;20206;-75
2022/01/16 09:29:33;;;;;;;29.53;17.60;;;;;;;0.85;100.00;99154.00;5103339;28;20216;-74
2022/01/16 09:32:00;;;;;;;26.53;17.00;;;;;;;0.93;100.00;99156.50;5094968;28;20272;-74
2022/01/16 09:34:27;;;;;;;28.40;17.17;;;;;;;0.93;100.00;99149.53;5107003;28;20240;-74
2022/01/16 09:36:53;;;;;;;24.17;15.63;;;;;;;0.96;100.00;99153.84;5103736;28;20726;-74
2022/01/16 09:39:21;;;;;;;29.47;17.73;;;;;;;1.02;100.00;99162.44;5104387;28;20209;-73
2022/01/16 09:41:48;;;;;;;24.70;16.00;;;;;;;1.04;100.00;99165.84;5105597;28;20221;-75
2022/01/16 09:44:17;;;;;;;26.53;16.17;;;;;;;1.08;100.00;99167.53;5101491;28;20238;-73
2022/01/16 09:46:43;;;;;;;23.30;15.63;;;;;;;1.07;100.00;99181.44;5103185;28;20210;-73
2022/01/16 09:49:11;;;;;;;26.13;16.80;;;;;;;1.08;100.00;99182.28;5103899;28;20225;-72
2022/01/16 09:51:38;;;;;;;28.20;17.80;;;;;;;1.03;100.00;99187.56;5104752;28;20213;-74
2022/01/16 09:54:05;;;;;;;26.33;16.30;;;;;;;1.10;100.00;99191.78;5102659;28;20242;-73
2022/01/16 09:56:33;;;;;;;25.37;15.93;;;;;;;1.10;100.00;99181.38;5103868;28;20240;-72
2022/01/16 09:59:00;;;;;;;23.17;15.10;;;;;;;1.15;100.00;99182.19;5105719;28;20242;-72
2022/01/16 10:01:27;;;;;;;26.80;17.37;;;;;;;1.15;100.00;99186.50;5102910;28;20209;-72
2022/01/16 10:03:53;;;;;;;25.87;16.67;;;;;;;1.15;100.00;99189.13;5101583;28;20216;-73
2022/01/16 10:06:22;;;;;;;27.23;17.67;;;;;;;1.20;100.00;99192.50;5093114;28;20242;-74
2022/01/16 10:08:50;;;;;;;25.07;16.80;;;;;;;1.19;100.00;99186.47;5094095;28;20218;-73
2022/01/16 10:11:27;;;;;;;25.23;15.93;;;;;;;1.13;100.00;99186.56;5094823;28;20203;-73
2022/01/16 10:14:01;;;;;;;25.53;16.33;;;;;;;1.10;100.00;99183.97;5095397;28;20207;-74
2022/01/16 10:16:30;;;;;;;28.97;17.47;;;;;;;1.13;100.00;99181.34;5108623;28;20210;-73
2022/01/16 10:18:57;;;;;;;26.07;16.47;;;;;;;1.12;100.00;99184.81;5108328;28;20597;-73
2022/01/16 10:21:35;;;;;;;25.77;17.13;;;;;;;1.18;100.00;99182.09;5109187;28;20206;-73
2022/01/16 10:24:16;;;;;;;24.47;16.53;;;;;;;1.26;100.00;99174.19;5109405;28;20212;-72
2022/01/16 10:26:43;;;;;;;30.07;18.10;;;;;;;1.33;100.00;99179.28;5111895;28;20213;-74
2022/01/16 10:29:16;;;;;;;27.30;17.43;;;;;;;1.38;100.00;99174.00;5111888;28;20221;-73
2022/01/16 10:31:42;;;;;;;25.60;16.87;;;;;;;1.41;100.00;99172.19;5109254;28;20654;-72
2022/01/16 10:34:24;;;;;;;24.40;16.00;;;;;;;1.39;100.00;99173.97;5111092;28;20214;-72
2022/01/16 10:36:51;;;;;;;26.23;16.97;;;;;;;1.43;100.00;99177.38;5111477;28;20210;-72
2022/01/16 10:39:17;;;;;;;31.73;18.23;;;;;;;1.43;100.00;99174.78;5111319;28;20214;-72
2022/01/16 10:41:44;;;;;;;27.37;17.27;;;;;;;1.45;100.00;99173.00;5108218;28;20696;-71
2022/01/16 10:47:26;;;;;;;27.67;16.90;;;;;;;1.56;100.00;99194.53;5098955;27;20927;-73
2022/01/16 10:50:07;;;;;;;26.67;17.23;;;;;;;1.58;100.00;99185.81;5106000;28;20676;-72
2022/01/16 10:52:34;;;;;;;24.63;16.23;;;;;;;1.61;100.00;99195.31;5104346;28;20209;-72
2022/01/16 10:55:09;;;;;;;24.80;17.10;;;;;;;1.62;100.00;99202.25;5098815;28;20218;-73
2022/01/16 10:57:36;;;;;;;24.10;15.90;;;;;;;1.64;100.00;99206.53;5106196;28;20210;-72
2022/01/16 11:00:22;;;;;;;24.47;16.70;;;;;;;1.69;100.00;99199.50;5094909;28;20560;-73
2022/01/16 11:02:52;;;;;;;26.07;16.60;;;;;;;1.77;100.00;99200.22;5097217;28;20214;-72
2022/01/16 11:05:20;;;;;;;24.50;17.00;;;;;;;1.86;100.00;99201.81;5105825;28;20241;-72
2022/01/16 11:07:47;;;;;;;24.83;16.63;;;;;;;1.94;100.00;99197.31;5094961;28;20215;-71
2022/01/16 11:10:21;;;;;;;26.63;17.67;;;;;;;1.98;100.00;99202.47;5095255;28;20676;-72
2022/01/16 11:12:49;;;;;;;29.33;17.67;;;;;;;1.99;100.00;99203.31;5109064;28;20590;-72
2022/01/16 11:15:15;;;;;;;33.13;19.60;;;;;;;1.92;100.00;99207.78;5097049;28;20260;-73
2022/01/16 11:17:42;;;;;;;35.37;21.83;;;;;;;1.78;100.00;99199.34;5094614;28;20211;-73
2022/01/16 11:20:11;;;;;;;35.93;21.13;;;;;;;1.77;100.00;99196.78;5094574;28;20211;-71
2022/01/16 11:22:56;;;;;;;34.90;21.70;;;;;;;1.75;100.00;99204.63;5108189;28;20214;-72
2022/01/16 11:25:31;;;;;;;40.70;21.40;;;;;;;1.85;100.00;99200.09;5098202;28;20238;-72
2022/01/16 11:28:00;;;;;;;36.43;21.40;;;;;;;1.99;100.00;99196.38;5109022;28;20722;-71
2022/01/16 11:30:26;;;;;;;40.60;22.13;;;;;;;2.06;100.00;99200.56;5108566;28;20597;-71
2022/01/16 11:32:53;;;;;;;41.17;21.67;;;;;;;1.90;100.00;99204.34;5108518;28;20229;-70
2022/01/16 11:35:21;;;;;;;36.20;21.03;;;;;;;1.88;100.00;99216.53;5108421;28;20211;-71
2022/01/16 11:37:48;;;;;;;38.20;21.90;;;;;;;1.89;100.00;99220.88;5107012;28;20222;-71
2022/01/16 11:40:24;;;;;;;38.97;21.23;;;;;;;1.84;100.00;99221.84;5108636;28;20217;-69
2022/01/16 11:43:17;;;;;;;36.90;20.60;;;;;;;1.78;100.00;99219.34;5108331;28;20346;-71
2022/01/16 11:45:48;;;;;;;35.13;20.47;;;;;;;1.74;100.00;99228.97;5108450;28;20253;-71
2022/01/16 11:48:19;;;;;;;33.93;19.63;;;;;;;1.70;100.00;99235.09;5105966;28;20210;-71
2022/01/16 11:50:49;;;;;;;35.13;19.60;;;;;;;1.69;100.00;99222.97;5108142;28;20324;-72
2022/01/16 11:53:48;;;;;;;36.33;20.63;;;;;;;1.67;100.00;99222.09;5108179;28;20214;-72
2022/01/16 11:56:58;;;;;;;33.07;18.97;;;;;;;1.71;100.00;99225.56;5105692;28;20210;-72
2022/01/16 11:59:28;;;;;;;29.43;16.97;;;;;;;1.74;100.00;99223.75;5017601;28;20397;-72
2022/01/16 12:01:56;;;;;;;31.70;18.07;;;;;;;1.76;100.00;99216.75;5020264;28;20221;-72
2022/01/16 12:04:48;;;;;;;31.43;17.63;;;;;;;1.77;100.00;99218.47;5053535;28;20579;-73
2022/01/16 12:07:48;;;;;;;33.53;19.40;;;;;;;1.79;100.00;99227.13;5085922;28;20239;-72